Sentinel Butte, ND (58654)

7:47 PM MST on February 05, 2016 (GMT -0700)
Old Hwy 10 | | Change Station
CLOSE
Current Station
Personal Weather Station
Location: Medora, ND
Elevation: 2523 ft
Nearby Weather Stations
Active Advisory: High Wind Warning

Elev 2523 ft 46.92 °N, 103.65 °W | Updated 21 seconds ago

Clear
Clear
30.2 °F
Feels Like 30 °F
N
2.9
Wind Variable Wind from SW
Gusts 6.0 mph

Today
High -- | Low -- °F
--% Chance of Precip.
Yesterday
High -- | Low -- °F
Precip. -- in
Pressure 30.06 in
Visibility 10.0 miles
Clouds Clear
Windchill 30 °F
Dew Point 24 °F
Humidity 77%
Rainfall 0.00 in
Snow Depth Not available.
7:14 AM 5:03 PM
Waning Crescent, 8% visible
METAR K20U 060235Z AUTO 23009KT 10SM CLR 00/M05 A3006 RMK AO2
Pressure 30.06 in
Visibility 10.0 miles
Clouds Clear
Windchill 30 °F
Dew Point 24 °F
Humidity 77%
Rainfall 0.00 in
Snow Depth Not available.
7:14 AM 5:03 PM
Waning Crescent, 8% visible
METAR K20U 060235Z AUTO 23009KT 10SM CLR 00/M05 A3006 RMK AO2

10-Day Weather Forecast

Almanac

Astronomy

Feb. 05, 2016 Rise Set
Actual Time
Civil Twilight
Nautical Twilight
Astronomical Twilight
Moon
Length of Visible Light
Length of Day
Tomorrow will be .
, % of the Moon is Illuminated

Today's Extremes

State Highs State Lows

Community

WunderPhotos

Upload Photos

1,890,913 photos uploaded!

WunderBlog® & News

Nearby

Air Quality

  Air Quality AQ Index Pollutant
Not available.

Snow Depth

Station Depth Elevation

Earthquake Activity

City Distance Mag. Time & Date
Minimum magnitude displayed is 2.5.

Coastal Water Temperatures

Place Temperature

Stations

Nearby Weather Stations

Station Location Temp. Windchill Dew Point Humidity Wind Precip. Elev Updated Type
                   

Watches & Warnings

High Wind Warning
Issued: 5:09 PM MST Feb. 5, 2016 – National Weather Service

... High Wind Warning remains in effect from noon CST /11 am MST/
Saturday to 9 PM CST /8 PM MST/ Sunday...

* timing... Saturday afternoon through Sunday afternoon.

* Winds... northwest winds gusting up to 65 mph.

* Impacts... travel may become hazardous over western North
Dakota.

Precautionary/preparedness actions...

A High Wind Warning means a hazardous high wind event is expected
or occurring. Sustained wind speeds of at least 40 mph or gusts
of 58 mph or more can lead to property damage.